sensor_id;sensor_type;location;lat;lon;timestamp;temperature;humidity
4725;DHT22;2376;53.544;10.226;2022-11-15T00:02:02;9.20;99.90
4725;DHT22;2376;53.544;10.226;2022-11-15T00:04:30;9.10;99.90
4725;DHT22;2376;53.544;10.226;2022-11-15T00:06:56;9.20;99.90
4725;DHT22;2376;53.544;10.226;2022-11-15T00:09:24;9.20;99.90
4725;DHT22;2376;53.544;10.226;2022-11-15T00:11:51;9.20;99.90
4725;DHT22;2376;53.544;10.226;2022-11-15T00:14:18;9.20;99.90
4725;DHT22;2376;53.544;10.226;2022-11-15T00:16:45;9.30;99.90
4725;DHT22;2376;53.544;10.226;2022-11-15T00:19:11;9.30;99.90
4725;DHT22;2376;53.544;10.226;2022-11-15T00:21:39;9.30;99.90
4725;DHT22;2376;53.544;10.226;2022-11-15T00:24:06;9.20;99.90
4725;DHT22;2376;53.544;10.226;2022-11-15T00:26:34;9.30;99.90
4725;DHT22;2376;53.544;10.226;2022-11-15T00:29:01;9.30;99.90
4725;DHT22;2376;53.544;10.226;2022-11-15T00:31:27;9.40;99.90
4725;DHT22;2376;53.544;10.226;2022-11-15T00:33:54;9.40;99.90
4725;DHT22;2376;53.544;10.226;2022-11-15T00:36:20;9.40;99.90
4725;DHT22;2376;53.544;10.226;2022-11-15T00:38:47;9.40;99.90
4725;DHT22;2376;53.544;10.226;2022-11-15T00:41:14;9.40;99.90
4725;DHT22;2376;53.544;10.226;2022-11-15T00:43:42;9.50;99.90
4725;DHT22;2376;53.544;10.226;2022-11-15T00:46:09;9.50;99.90
4725;DHT22;2376;53.544;10.226;2022-11-15T00:48:36;9.50;99.90
4725;DHT22;2376;53.544;10.226;2022-11-15T00:51:03;9.50;99.90
4725;DHT22;2376;53.544;10.226;2022-11-15T00:53:29;9.50;99.90
4725;DHT22;2376;53.544;10.226;2022-11-15T00:55:56;9.50;99.90
4725;DHT22;2376;53.544;10.226;2022-11-15T00:58:23;9.40;99.90
4725;DHT22;2376;53.544;10.226;2022-11-15T01:00:51;9.40;99.90
4725;DHT22;2376;53.544;10.226;2022-11-15T01:03:17;9.40;99.90
4725;DHT22;2376;53.544;10.226;2022-11-15T01:05:44;9.40;99.90
4725;DHT22;2376;53.544;10.226;2022-11-15T01:08:12;9.40;99.90
4725;DHT22;2376;53.544;10.226;2022-11-15T01:10:39;9.40;99.90
4725;DHT22;2376;53.544;10.226;2022-11-15T01:13:06;9.40;99.90
4725;DHT22;2376;53.544;10.226;2022-11-15T01:15:33;9.40;99.90
4725;DHT22;2376;53.544;10.226;2022-11-15T01:18:01;9.50;99.90
4725;DHT22;2376;53.544;10.226;2022-11-15T01:20:27;9.50;99.90
4725;DHT22;2376;53.544;10.226;2022-11-15T01:22:54;9.50;99.90
4725;DHT22;2376;53.544;10.226;2022-11-15T01:25:21;9.50;99.90
4725;DHT22;2376;53.544;10.226;2022-11-15T01:27:47;9.50;99.90
4725;DHT22;2376;53.544;10.226;2022-11-15T01:30:14;9.50;99.90
4725;DHT22;2376;53.544;10.226;2022-11-15T01:32:41;9.50;99.90
4725;DHT22;2376;53.544;10.226;2022-11-15T01:35:09;9.50;99.90
4725;DHT22;2376;53.544;10.226;2022-11-15T01:37:36;9.50;99.90
4725;DHT22;2376;53.544;10.226;2022-11-15T01:40:03;9.50;99.90
4725;DHT22;2376;53.544;10.226;2022-11-15T01:42:30;9.50;99.90
4725;DHT22;2376;53.544;10.226;2022-11-15T01:44:56;9.50;99.90
4725;DHT22;2376;53.544;10.226;2022-11-15T01:47:25;9.50;99.90
4725;DHT22;2376;53.544;10.226;2022-11-15T01:49:56;9.50;99.90
4725;DHT22;2376;53.544;10.226;2022-11-15T01:52:27;9.50;99.90
4725;DHT22;2376;53.544;10.226;2022-11-15T01:54:59;9.50;99.90
4725;DHT22;2376;53.544;10.226;2022-11-15T01:57:27;9.50;99.90
4725;DHT22;2376;53.544;10.226;2022-11-15T01:59:54;9.50;99.90
4725;DHT22;2376;53.544;10.226;2022-11-15T02:02:22;9.50;99.90
4725;DHT22;2376;53.544;10.226;2022-11-15T02:04:48;9.50;99.90
4725;DHT22;2376;53.544;10.226;2022-11-15T02:07:16;9.50;99.90
4725;DHT22;2376;53.544;10.226;2022-11-15T02:09:46;9.40;99.90
4725;DHT22;2376;53.544;10.226;2022-11-15T02:12:16;9.40;99.90
4725;DHT22;2376;53.544;10.226;2022-11-15T02:14:47;9.40;99.90
4725;DHT22;2376;53.544;10.226;2022-11-15T02:17:30;9.40;99.90
4725;DHT22;2376;53.544;10.226;2022-11-15T02:20:30;9.40;99.90
4725;DHT22;2376;53.544;10.226;2022-11-15T02:26:01;9.40;99.90
4725;DHT22;2376;53.544;10.226;2022-11-15T02:28:43;9.30;99.90
4725;DHT22;2376;53.544;10.226;2022-11-15T02:31:17;9.40;99.90
4725;DHT22;2376;53.544;10.226;2022-11-15T02:33:54;9.40;99.90
4725;DHT22;2376;53.544;10.226;2022-11-15T02:36:33;9.40;99.90
4725;DHT22;2376;53.544;10.226;2022-11-15T02:39:07;9.40;99.90
4725;DHT22;2376;53.544;10.226;2022-11-15T02:41:39;9.30;99.90
4725;DHT22;2376;53.544;10.226;2022-11-15T02:44:13;9.30;99.90
4725;DHT22;2376;53.544;10.226;2022-11-15T02:46:45;9.30;99.90
4725;DHT22;2376;53.544;10.226;2022-11-15T02:49:33;9.30;99.90
4725;DHT22;2376;53.544;10.226;2022-11-15T02:52:00;9.20;99.90
4725;DHT22;2376;53.544;10.226;2022-11-15T02:54:29;9.20;99.90
4725;DHT22;2376;53.544;10.226;2022-11-15T02:57:01;9.20;99.90
4725;DHT22;2376;53.544;10.226;2022-11-15T02:59:49;9.20;99.90
4725;DHT22;2376;53.544;10.226;2022-11-15T03:02:32;9.20;99.90
4725;DHT22;2376;53.544;10.226;2022-11-15T03:05:07;9.10;99.90
4725;DHT22;2376;53.544;10.226;2022-11-15T03:07:41;9.10;99.90
4725;DHT22;2376;53.544;10.226;2022-11-15T03:10:14;9.10;99.90
4725;DHT22;2376;53.544;10.226;2022-11-15T03:12:46;9.10;99.90
4725;DHT22;2376;53.544;10.226;2022-11-15T03:15:18;9.00;99.90
4725;DHT22;2376;53.544;10.226;2022-11-15T03:17:52;9.00;99.90
4725;DHT22;2376;53.544;10.226;2022-11-15T03:20:21;9.00;99.90
4725;DHT22;2376;53.544;10.226;2022-11-15T03:22:49;9.00;99.90
4725;DHT22;2376;53.544;10.226;2022-11-15T03:25:19;9.00;99.90
4725;DHT22;2376;53.544;10.226;2022-11-15T03:27:51;9.00;99.90
4725;DHT22;2376;53.544;10.226;2022-11-15T03:30:19;9.00;99.90
4725;DHT22;2376;53.544;10.226;2022-11-15T03:32:50;9.00;99.90
4725;DHT22;2376;53.544;10.226;2022-11-15T03:35:19;9.00;99.90
4725;DHT22;2376;53.544;10.226;2022-11-15T03:37:51;9.00;99.90
4725;DHT22;2376;53.544;10.226;2022-11-15T03:40:23;9.00;99.90
4725;DHT22;2376;53.544;10.226;2022-11-15T03:42:57;9.00;99.90
4725;DHT22;2376;53.544;10.226;2022-11-15T03:45:30;9.00;99.90
4725;DHT22;2376;53.544;10.226;2022-11-15T03:48:02;9.10;99.90
4725;DHT22;2376;53.544;10.226;2022-11-15T03:50:30;9.10;99.90
4725;DHT22;2376;53.544;10.226;2022-11-15T03:52:57;9.10;99.90
4725;DHT22;2376;53.544;10.226;2022-11-15T03:55:25;9.10;99.90
4725;DHT22;2376;53.544;10.226;2022-11-15T03:57:54;9.10;99.90
4725;DHT22;2376;53.544;10.226;2022-11-15T04:00:22;9.00;99.90
4725;DHT22;2376;53.544;10.226;2022-11-15T04:02:48;9.00;99.90
4725;DHT22;2376;53.544;10.226;2022-11-15T04:05:17;9.00;99.90
4725;DHT22;2376;53.544;10.226;2022-11-15T04:07:43;9.00;99.90
4725;DHT22;2376;53.544;10.226;2022-11-15T04:10:11;9.00;99.90
4725;DHT22;2376;53.544;10.226;2022-11-15T04:12:39;9.00;99.90
4725;DHT22;2376;53.544;10.226;2022-11-15T04:15:10;9.00;99.90
4725;DHT22;2376;53.544;10.226;2022-11-15T04:17:39;9.00;99.90
4725;DHT22;2376;53.544;10.226;2022-11-15T04:20:08;8.90;99.90
4725;DHT22;2376;53.544;10.226;2022-11-15T04:22:55;8.90;99.90
4725;DHT22;2376;53.544;10.226;2022-11-15T04:25:40;8.90;99.90
4725;DHT22;2376;53.544;10.226;2022-11-15T04:28:07;8.90;99.90
4725;DHT22;2376;53.544;10.226;2022-11-15T04:30:34;8.90;99.90
4725;DHT22;2376;53.544;10.226;2022-11-15T04:33:01;8.90;99.90
4725;DHT22;2376;53.544;10.226;2022-11-15T04:35:28;8.90;99.90
4725;DHT22;2376;53.544;10.226;2022-11-15T04:37:56;8.90;99.90
4725;DHT22;2376;53.544;10.226;2022-11-15T04:40:23;8.90;99.90
4725;DHT22;2376;53.544;10.226;2022-11-15T04:42:49;8.90;99.90
4725;DHT22;2376;53.544;10.226;2022-11-15T04:45:16;8.90;99.90
4725;DHT22;2376;53.544;10.226;2022-11-15T04:47:43;8.90;99.90
4725;DHT22;2376;53.544;10.226;2022-11-15T04:50:11;8.90;99.90
4725;DHT22;2376;53.544;10.226;2022-11-15T04:52:39;8.90;99.90
4725;DHT22;2376;53.544;10.226;2022-11-15T04:55:08;8.90;99.90
4725;DHT22;2376;53.544;10.226;2022-11-15T04:57:35;8.90;99.90
4725;DHT22;2376;53.544;10.226;2022-11-15T05:00:03;8.90;99.90
4725;DHT22;2376;53.544;10.226;2022-11-15T05:02:30;8.90;99.90
4725;DHT22;2376;53.544;10.226;2022-11-15T05:05:16;8.90;99.90
4725;DHT22;2376;53.544;10.226;2022-11-15T05:07:42;8.90;99.90
4725;DHT22;2376;53.544;10.226;2022-11-15T05:10:11;8.80;99.90
4725;DHT22;2376;53.544;10.226;2022-11-15T05:12:37;8.80;99.90
4725;DHT22;2376;53.544;10.226;2022-11-15T05:15:05;8.70;99.90
4725;DHT22;2376;53.544;10.226;2022-11-15T05:17:32;8.60;99.90
4725;DHT22;2376;53.544;10.226;2022-11-15T05:19:59;8.70;99.90
4725;DHT22;2376;53.544;10.226;2022-11-15T05:22:25;8.80;99.90
4725;DHT22;2376;53.544;10.226;2022-11-15T05:24:53;8.80;99.90
4725;DHT22;2376;53.544;10.226;2022-11-15T05:27:21;8.90;99.90
4725;DHT22;2376;53.544;10.226;2022-11-15T05:29:47;8.90;99.90
4725;DHT22;2376;53.544;10.226;2022-11-15T05:32:14;8.80;99.90
4725;DHT22;2376;53.544;10.226;2022-11-15T05:34:42;8.70;99.90
4725;DHT22;2376;53.544;10.226;2022-11-15T05:37:08;8.80;99.90
4725;DHT22;2376;53.544;10.226;2022-11-15T05:39:35;8.90;99.90
4725;DHT22;2376;53.544;10.226;2022-11-15T05:42:05;8.90;99.90
4725;DHT22;2376;53.544;10.226;2022-11-15T05:44:36;8.70;99.90
4725;DHT22;2376;53.544;10.226;2022-11-15T05:47:05;8.70;99.90
4725;DHT22;2376;53.544;10.226;2022-11-15T05:49:34;8.80;99.90
4725;DHT22;2376;53.544;10.226;2022-11-15T05:52:03;8.70;99.90
4725;DHT22;2376;53.544;10.226;2022-11-15T05:54:32;8.60;99.90
4725;DHT22;2376;53.544;10.226;2022-11-15T05:56:59;8.70;99.90
4725;DHT22;2376;53.544;10.226;2022-11-15T05:59:28;8.80;99.90
4725;DHT22;2376;53.544;10.226;2022-11-15T06:01:57;8.90;99.90
4725;DHT22;2376;53.544;10.226;2022-11-15T06:04:23;8.60;99.90
4725;DHT22;2376;53.544;10.226;2022-11-15T06:06:50;8.70;99.90
4725;DHT22;2376;53.544;10.226;2022-11-15T06:09:17;8.80;99.90
4725;DHT22;2376;53.544;10.226;2022-11-15T06:11:43;8.80;99.90
4725;DHT22;2376;53.544;10.226;2022-11-15T06:14:10;8.80;99.90
4725;DHT22;2376;53.544;10.226;2022-11-15T06:16:37;8.90;99.90
4725;DHT22;2376;53.544;10.226;2022-11-15T06:19:05;9.00;99.90
4725;DHT22;2376;53.544;10.226;2022-11-15T06:21:32;9.10;99.90
4725;DHT22;2376;53.544;10.226;2022-11-15T06:23:59;9.10;99.90
4725;DHT22;2376;53.544;10.226;2022-11-15T06:26:25;9.20;99.90
4725;DHT22;2376;53.544;10.226;2022-11-15T06:28:52;9.20;99.90
4725;DHT22;2376;53.544;10.226;2022-11-15T06:31:19;9.20;99.90
4725;DHT22;2376;53.544;10.226;2022-11-15T06:33:46;9.00;99.90
4725;DHT22;2376;53.544;10.226;2022-11-15T06:36:16;9.10;99.90
4725;DHT22;2376;53.544;10.226;2022-11-15T06:38:43;9.10;99.90
4725;DHT22;2376;53.544;10.226;2022-11-15T06:41:11;9.10;99.90
4725;DHT22;2376;53.544;10.226;2022-11-15T06:43:38;9.20;99.90
4725;DHT22;2376;53.544;10.226;2022-11-15T06:46:07;9.20;99.90
4725;DHT22;2376;53.544;10.226;2022-11-15T06:48:34;9.20;99.90
4725;DHT22;2376;53.544;10.226;2022-11-15T06:51:02;9.20;99.90
4725;DHT22;2376;53.544;10.226;2022-11-15T06:53:31;9.30;99.90
4725;DHT22;2376;53.544;10.226;2022-11-15T06:55:59;9.30;99.90
4725;DHT22;2376;53.544;10.226;2022-11-15T06:58:26;9.30;99.90
4725;DHT22;2376;53.544;10.226;2022-11-15T07:00:53;9.30;99.90
4725;DHT22;2376;53.544;10.226;2022-11-15T07:03:20;9.30;99.90
4725;DHT22;2376;53.544;10.226;2022-11-15T07:05:51;9.20;99.90
4725;DHT22;2376;53.544;10.226;2022-11-15T07:08:19;9.20;99.90
4725;DHT22;2376;53.544;10.226;2022-11-15T07:10:47;9.10;99.90
4725;DHT22;2376;53.544;10.226;2022-11-15T07:13:14;9.20;99.90
4725;DHT22;2376;53.544;10.226;2022-11-15T07:15:41;9.30;99.90
4725;DHT22;2376;53.544;10.226;2022-11-15T07:18:07;9.40;99.90
4725;DHT22;2376;53.544;10.226;2022-11-15T07:20:34;9.40;99.90
4725;DHT22;2376;53.544;10.226;2022-11-15T07:23:01;9.40;99.90
4725;DHT22;2376;53.544;10.226;2022-11-15T07:25:28;9.50;99.90
4725;DHT22;2376;53.544;10.226;2022-11-15T07:27:56;9.50;99.90
4725;DHT22;2376;53.544;10.226;2022-11-15T07:30:23;9.50;99.90
4725;DHT22;2376;53.544;10.226;2022-11-15T07:32:53;9.50;99.90
4725;DHT22;2376;53.544;10.226;2022-11-15T07:35:20;9.50;99.90
4725;DHT22;2376;53.544;10.226;2022-11-15T07:37:53;9.50;99.90
4725;DHT22;2376;53.544;10.226;2022-11-15T07:40:20;9.50;99.90
4725;DHT22;2376;53.544;10.226;2022-11-15T07:42:47;9.60;99.90
4725;DHT22;2376;53.544;10.226;2022-11-15T07:45:23;9.50;99.90
4725;DHT22;2376;53.544;10.226;2022-11-15T07:47:51;9.50;99.90
4725;DHT22;2376;53.544;10.226;2022-11-15T07:50:18;9.60;99.90
4725;DHT22;2376;53.544;10.226;2022-11-15T07:52:45;9.50;99.90
4725;DHT22;2376;53.544;10.226;2022-11-15T07:55:12;9.30;99.90
4725;DHT22;2376;53.544;10.226;2022-11-15T07:57:39;9.30;99.90
4725;DHT22;2376;53.544;10.226;2022-11-15T08:00:06;9.40;99.90
4725;DHT22;2376;53.544;10.226;2022-11-15T08:02:35;9.60;99.90
4725;DHT22;2376;53.544;10.226;2022-11-15T08:05:01;9.60;99.90
4725;DHT22;2376;53.544;10.226;2022-11-15T08:07:29;9.40;99.90
4725;DHT22;2376;53.544;10.226;2022-11-15T08:09:56;9.40;99.90
4725;DHT22;2376;53.544;10.226;2022-11-15T08:12:23;9.40;99.90
4725;DHT22;2376;53.544;10.226;2022-11-15T08:14:50;9.40;99.90
4725;DHT22;2376;53.544;10.226;2022-11-15T08:17:17;9.20;99.90
4725;DHT22;2376;53.544;10.226;2022-11-15T08:19:45;9.20;99.90
4725;DHT22;2376;53.544;10.226;2022-11-15T08:22:11;9.30;99.90
4725;DHT22;2376;53.544;10.226;2022-11-15T08:24:38;9.40;99.90
4725;DHT22;2376;53.544;10.226;2022-11-15T08:27:05;9.50;99.90
4725;DHT22;2376;53.544;10.226;2022-11-15T08:29:40;9.60;99.90
4725;DHT22;2376;53.544;10.226;2022-11-15T08:32:07;9.50;99.90
4725;DHT22;2376;53.544;10.226;2022-11-15T08:34:34;9.40;99.90
4725;DHT22;2376;53.544;10.226;2022-11-15T08:37:03;9.40;99.90
4725;DHT22;2376;53.544;10.226;2022-11-15T08:39:29;9.50;99.90
4725;DHT22;2376;53.544;10.226;2022-11-15T08:41:56;9.40;99.90
4725;DHT22;2376;53.544;10.226;2022-11-15T08:44:23;9.60;99.90
4725;DHT22;2376;53.544;10.226;2022-11-15T08:46:50;9.70;99.90
4725;DHT22;2376;53.544;10.226;2022-11-15T08:49:17;9.60;99.90
4725;DHT22;2376;53.544;10.226;2022-11-15T08:51:45;9.50;99.90
4725;DHT22;2376;53.544;10.226;2022-11-15T08:54:13;9.40;99.90
4725;DHT22;2376;53.544;10.226;2022-11-15T08:56:39;9.40;99.90
4725;DHT22;2376;53.544;10.226;2022-11-15T08:59:06;9.50;99.90
4725;DHT22;2376;53.544;10.226;2022-11-15T09:01:33;9.60;99.90
4725;DHT22;2376;53.544;10.226;2022-11-15T09:03:59;9.70;99.90
4725;DHT22;2376;53.544;10.226;2022-11-15T09:06:26;9.70;99.90
4725;DHT22;2376;53.544;10.226;2022-11-15T09:08:53;9.90;99.90
4725;DHT22;2376;53.544;10.226;2022-11-15T09:11:21;10.00;99.90
4725;DHT22;2376;53.544;10.226;2022-11-15T09:13:48;9.90;99.90
4725;DHT22;2376;53.544;10.226;2022-11-15T09:16:15;9.90;99.90
4725;DHT22;2376;53.544;10.226;2022-11-15T09:18:42;9.80;99.90
4725;DHT22;2376;53.544;10.226;2022-11-15T09:21:09;10.00;99.90
4725;DHT22;2376;53.544;10.226;2022-11-15T09:23:36;10.20;99.90
4725;DHT22;2376;53.544;10.226;2022-11-15T09:26:04;10.30;99.90
4725;DHT22;2376;53.544;10.226;2022-11-15T09:28:33;10.40;99.90
4725;DHT22;2376;53.544;10.226;2022-11-15T09:31:00;10.40;99.90
4725;DHT22;2376;53.544;10.226;2022-11-15T09:33:28;10.30;99.90
4725;DHT22;2376;53.544;10.226;2022-11-15T09:35:59;10.40;99.90
4725;DHT22;2376;53.544;10.226;2022-11-15T09:38:26;10.60;99.90
4725;DHT22;2376;53.544;10.226;2022-11-15T09:41:05;10.60;99.90
4725;DHT22;2376;53.544;10.226;2022-11-15T09:43:41;10.80;99.90
4725;DHT22;2376;53.544;10.226;2022-11-15T09:46:16;11.00;99.90
4725;DHT22;2376;53.544;10.226;2022-11-15T09:48:51;11.10;99.90
4725;DHT22;2376;53.544;10.226;2022-11-15T09:51:25;11.20;99.90
4725;DHT22;2376;53.544;10.226;2022-11-15T09:54:02;11.30;99.90
4725;DHT22;2376;53.544;10.226;2022-11-15T09:56:30;11.40;99.90
4725;DHT22;2376;53.544;10.226;2022-11-15T09:59:23;11.50;99.90
4725;DHT22;2376;53.544;10.226;2022-11-15T10:01:58;11.50;99.90
4725;DHT22;2376;53.544;10.226;2022-11-15T10:04:28;11.60;99.90
4725;DHT22;2376;53.544;10.226;2022-11-15T10:07:00;11.60;99.90
4725;DHT22;2376;53.544;10.226;2022-11-15T10:09:33;11.60;99.90
4725;DHT22;2376;53.544;10.226;2022-11-15T10:12:02;11.70;99.90
4725;DHT22;2376;53.544;10.226;2022-11-15T10:14:31;11.70;99.90
4725;DHT22;2376;53.544;10.226;2022-11-15T10:20:07;11.60;99.90
4725;DHT22;2376;53.544;10.226;2022-11-15T10:22:39;11.50;99.90
4725;DHT22;2376;53.544;10.226;2022-11-15T10:25:15;11.60;99.90
4725;DHT22;2376;53.544;10.226;2022-11-15T10:27:44;11.60;99.90
4725;DHT22;2376;53.544;10.226;2022-11-15T10:30:17;11.70;99.90
4725;DHT22;2376;53.544;10.226;2022-11-15T10:32:45;11.70;99.90
4725;DHT22;2376;53.544;10.226;2022-11-15T10:35:21;11.70;99.90
4725;DHT22;2376;53.544;10.226;2022-11-15T10:37:48;11.70;99.90
4725;DHT22;2376;53.544;10.226;2022-11-15T10:40:18;11.70;99.90
4725;DHT22;2376;53.544;10.226;2022-11-15T10:42:45;11.70;99.90
4725;DHT22;2376;53.544;10.226;2022-11-15T10:45:28;11.70;99.90
4725;DHT22;2376;53.544;10.226;2022-11-15T10:48:22;11.70;99.90
4725;DHT22;2376;53.544;10.226;2022-11-15T10:50:50;11.80;99.90
4725;DHT22;2376;53.544;10.226;2022-11-15T10:53:21;11.70;99.90
4725;DHT22;2376;53.544;10.226;2022-11-15T10:55:51;11.80;99.90
4725;DHT22;2376;53.544;10.226;2022-11-15T10:58:27;12.00;99.90
4725;DHT22;2376;53.544;10.226;2022-11-15T11:01:08;12.00;99.90
4725;DHT22;2376;53.544;10.226;2022-11-15T11:03:37;12.00;99.90
4725;DHT22;2376;53.544;10.226;2022-11-15T11:06:06;12.10;99.90
4725;DHT22;2376;53.544;10.226;2022-11-15T11:08:33;12.20;99.90
4725;DHT22;2376;53.544;10.226;2022-11-15T11:11:01;12.30;99.90
4725;DHT22;2376;53.544;10.226;2022-11-15T11:13:30;12.40;99.90
4725;DHT22;2376;53.544;10.226;2022-11-15T11:18:57;12.30;99.90
4725;DHT22;2376;53.544;10.226;2022-11-15T11:21:37;12.40;99.90
4725;DHT22;2376;53.544;10.226;2022-11-15T11:24:10;12.40;99.90
4725;DHT22;2376;53.544;10.226;2022-11-15T11:26:46;12.30;99.90
4725;DHT22;2376;53.544;10.226;2022-11-15T11:29:24;12.30;99.90
4725;DHT22;2376;53.544;10.226;2022-11-15T11:31:58;12.30;99.90
4725;DHT22;2376;53.544;10.226;2022-11-15T11:34:40;12.30;99.90
4725;DHT22;2376;53.544;10.226;2022-11-15T11:37:16;12.30;99.90
4725;DHT22;2376;53.544;10.226;2022-11-15T11:39:52;12.30;99.90
4725;DHT22;2376;53.544;10.226;2022-11-15T11:42:30;12.40;99.90
4725;DHT22;2376;53.544;10.226;2022-11-15T11:45:19;12.40;99.90
4725;DHT22;2376;53.544;10.226;2022-11-15T11:47:54;12.50;99.90
4725;DHT22;2376;53.544;10.226;2022-11-15T11:50:26;12.50;99.90
4725;DHT22;2376;53.544;10.226;2022-11-15T11:52:57;12.60;99.90
4725;DHT22;2376;53.544;10.226;2022-11-15T11:55:28;12.70;99.90
4725;DHT22;2376;53.544;10.226;2022-11-15T11:58:04;12.70;99.90
4725;DHT22;2376;53.544;10.226;2022-11-15T12:00:34;12.50;99.90
4725;DHT22;2376;53.544;10.226;2022-11-15T12:03:09;12.50;99.90
4725;DHT22;2376;53.544;10.226;2022-11-15T12:05:40;12.60;99.90
4725;DHT22;2376;53.544;10.226;2022-11-15T12:08:24;12.70;99.90
4725;DHT22;2376;53.544;10.226;2022-11-15T12:10:57;12.80;99.90
4725;DHT22;2376;53.544;10.226;2022-11-15T12:13:26;12.80;99.90
4725;DHT22;2376;53.544;10.226;2022-11-15T12:16:05;12.90;99.90
4725;DHT22;2376;53.544;10.226;2022-11-15T12:18:34;12.90;99.90
4725;DHT22;2376;53.544;10.226;2022-11-15T12:21:04;13.00;99.90
4725;DHT22;2376;53.544;10.226;2022-11-15T12:23:38;13.10;99.90
4725;DHT22;2376;53.544;10.226;2022-11-15T12:26:09;13.10;99.90
4725;DHT22;2376;53.544;10.226;2022-11-15T12:28:41;12.90;99.90
4725;DHT22;2376;53.544;10.226;2022-11-15T12:31:12;12.90;99.90
4725;DHT22;2376;53.544;10.226;2022-11-15T12:33:44;12.90;99.90
4725;DHT22;2376;53.544;10.226;2022-11-15T12:36:29;13.00;99.90
4725;DHT22;2376;53.544;10.226;2022-11-15T12:38:57;13.00;99.90
4725;DHT22;2376;53.544;10.226;2022-11-15T12:41:26;12.90;99.90
4725;DHT22;2376;53.544;10.226;2022-11-15T12:43:54;12.90;99.90
4725;DHT22;2376;53.544;10.226;2022-11-15T12:46:25;12.90;99.90
4725;DHT22;2376;53.544;10.226;2022-11-15T12:52:07;13.30;99.90
4725;DHT22;2376;53.544;10.226;2022-11-15T12:54:59;13.40;99.90
4725;DHT22;2376;53.544;10.226;2022-11-15T12:57:35;13.50;99.90
4725;DHT22;2376;53.544;10.226;2022-11-15T13:03:28;13.60;99.90
4725;DHT22;2376;53.544;10.226;2022-11-15T13:06:09;13.50;99.90
4725;DHT22;2376;53.544;10.226;2022-11-15T13:08:51;13.40;99.90
4725;DHT22;2376;53.544;10.226;2022-11-15T13:11:46;13.50;99.90
4725;DHT22;2376;53.544;10.226;2022-11-15T13:17:35;13.70;99.90
4725;DHT22;2376;53.544;10.226;2022-11-15T13:20:22;13.80;99.90
4725;DHT22;2376;53.544;10.226;2022-11-15T13:22:51;13.80;99.90
4725;DHT22;2376;53.544;10.226;2022-11-15T13:25:30;13.80;99.90
4725;DHT22;2376;53.544;10.226;2022-11-15T13:27:57;13.70;99.90
4725;DHT22;2376;53.544;10.226;2022-11-15T13:30:26;13.80;99.90
4725;DHT22;2376;53.544;10.226;2022-11-15T13:32:53;13.70;99.90
4725;DHT22;2376;53.544;10.226;2022-11-15T13:35:24;13.60;99.90
4725;DHT22;2376;53.544;10.226;2022-11-15T13:37:54;13.40;99.90
4725;DHT22;2376;53.544;10.226;2022-11-15T13:40:24;13.50;99.90
4725;DHT22;2376;53.544;10.226;2022-11-15T13:42:53;13.20;99.90
4725;DHT22;2376;53.544;10.226;2022-11-15T13:45:20;13.10;99.90
4725;DHT22;2376;53.544;10.226;2022-11-15T13:47:53;13.20;99.90
4725;DHT22;2376;53.544;10.226;2022-11-15T13:50:21;13.30;99.90
4725;DHT22;2376;53.544;10.226;2022-11-15T13:52:48;13.40;99.90
4725;DHT22;2376;53.544;10.226;2022-11-15T13:55:18;13.50;99.90
4725;DHT22;2376;53.544;10.226;2022-11-15T13:57:48;13.40;99.90
4725;DHT22;2376;53.544;10.226;2022-11-15T14:00:30;13.50;99.90
4725;DHT22;2376;53.544;10.226;2022-11-15T14:03:06;13.50;99.90
4725;DHT22;2376;53.544;10.226;2022-11-15T14:05:33;13.70;99.90
4725;DHT22;2376;53.544;10.226;2022-11-15T14:08:03;13.50;99.90
4725;DHT22;2376;53.544;10.226;2022-11-15T14:10:34;13.40;99.90
4725;DHT22;2376;53.544;10.226;2022-11-15T14:13:02;13.40;99.90
4725;DHT22;2376;53.544;10.226;2022-11-15T14:15:31;13.60;99.90
4725;DHT22;2376;53.544;10.226;2022-11-15T14:17:58;13.50;99.90
4725;DHT22;2376;53.544;10.226;2022-11-15T14:20:29;13.60;99.90
4725;DHT22;2376;53.544;10.226;2022-11-15T14:22:57;13.70;99.90
4725;DHT22;2376;53.544;10.226;2022-11-15T14:25:25;13.70;99.90
4725;DHT22;2376;53.544;10.226;2022-11-15T14:28:31;13.80;99.90
4725;DHT22;2376;53.544;10.226;2022-11-15T14:31:04;13.70;99.90
4725;DHT22;2376;53.544;10.226;2022-11-15T14:33:34;13.60;99.90
4725;DHT22;2376;53.544;10.226;2022-11-15T14:36:04;13.60;99.90
4725;DHT22;2376;53.544;10.226;2022-11-15T14:38:32;13.40;99.90
4725;DHT22;2376;53.544;10.226;2022-11-15T14:41:00;13.40;99.90
4725;DHT22;2376;53.544;10.226;2022-11-15T14:43:26;13.20;99.90
4725;DHT22;2376;53.544;10.226;2022-11-15T14:45:55;13.50;99.90
4725;DHT22;2376;53.544;10.226;2022-11-15T14:48:22;13.40;99.90
4725;DHT22;2376;53.544;10.226;2022-11-15T14:50:48;13.30;99.90
4725;DHT22;2376;53.544;10.226;2022-11-15T14:53:17;13.30;99.90
4725;DHT22;2376;53.544;10.226;2022-11-15T14:55:45;13.40;99.90
4725;DHT22;2376;53.544;10.226;2022-11-15T14:58:12;13.50;99.90
4725;DHT22;2376;53.544;10.226;2022-11-15T15:00:40;13.30;99.90
4725;DHT22;2376;53.544;10.226;2022-11-15T15:03:09;13.30;99.90
4725;DHT22;2376;53.544;10.226;2022-11-15T15:05:37;13.30;99.90
4725;DHT22;2376;53.544;10.226;2022-11-15T15:08:04;13.30;99.90
4725;DHT22;2376;53.544;10.226;2022-11-15T15:10:33;13.20;99.90
4725;DHT22;2376;53.544;10.226;2022-11-15T15:13:00;13.10;99.90
4725;DHT22;2376;53.544;10.226;2022-11-15T15:15:32;13.20;99.90
4725;DHT22;2376;53.544;10.226;2022-11-15T15:17:59;13.20;99.90
4725;DHT22;2376;53.544;10.226;2022-11-15T15:20:27;13.20;99.90
4725;DHT22;2376;53.544;10.226;2022-11-15T15:22:55;13.30;99.90
4725;DHT22;2376;53.544;10.226;2022-11-15T15:25:24;13.30;99.90
4725;DHT22;2376;53.544;10.226;2022-11-15T15:27:53;13.20;99.90
4725;DHT22;2376;53.544;10.226;2022-11-15T15:30:21;13.20;99.90
4725;DHT22;2376;53.544;10.226;2022-11-15T15:32:47;13.30;99.90
4725;DHT22;2376;53.544;10.226;2022-11-15T15:35:15;13.30;99.90
4725;DHT22;2376;53.544;10.226;2022-11-15T15:37:45;13.20;99.90
4725;DHT22;2376;53.544;10.226;2022-11-15T15:40:15;13.20;99.90
4725;DHT22;2376;53.544;10.226;2022-11-15T15:42:43;13.20;99.90
4725;DHT22;2376;53.544;10.226;2022-11-15T15:45:10;13.30;99.90
4725;DHT22;2376;53.544;10.226;2022-11-15T15:47:37;13.30;99.90
4725;DHT22;2376;53.544;10.226;2022-11-15T15:50:17;13.20;99.90
4725;DHT22;2376;53.544;10.226;2022-11-15T15:52:48;13.20;99.90
4725;DHT22;2376;53.544;10.226;2022-11-15T15:55:14;13.20;99.90
4725;DHT22;2376;53.544;10.226;2022-11-15T15:57:41;13.30;99.90
4725;DHT22;2376;53.544;10.226;2022-11-15T16:00:10;13.20;99.90
4725;DHT22;2376;53.544;10.226;2022-11-15T16:02:37;13.20;99.90
4725;DHT22;2376;53.544;10.226;2022-11-15T16:05:04;13.20;99.90
4725;DHT22;2376;53.544;10.226;2022-11-15T16:07:32;13.10;99.90
4725;DHT22;2376;53.544;10.226;2022-11-15T16:10:00;13.10;99.90
4725;DHT22;2376;53.544;10.226;2022-11-15T16:12:27;13.10;99.90
4725;DHT22;2376;53.544;10.226;2022-11-15T16:14:53;13.00;99.90
4725;DHT22;2376;53.544;10.226;2022-11-15T16:17:22;13.00;99.90
4725;DHT22;2376;53.544;10.226;2022-11-15T16:19:49;12.80;99.90
4725;DHT22;2376;53.544;10.226;2022-11-15T16:22:16;12.80;99.90
4725;DHT22;2376;53.544;10.226;2022-11-15T16:24:43;12.90;99.90
4725;DHT22;2376;53.544;10.226;2022-11-15T16:27:13;12.90;99.90
4725;DHT22;2376;53.544;10.226;2022-11-15T16:29:40;12.90;99.90
4725;DHT22;2376;53.544;10.226;2022-11-15T16:32:07;13.00;99.90